createdAt,value
2019-02-20T00:04:51.526Z,101692.09
2019-02-20T00:09:44.398Z,101689.47
2019-02-20T00:14:37.308Z,101688.38
2019-02-20T00:19:30.175Z,101689.91
2019-02-20T00:24:23.043Z,101693.49
2019-02-20T00:29:15.914Z,101692.95
2019-02-20T00:34:08.823Z,101699.31
2019-02-20T00:39:01.696Z,101695.03
2019-02-20T00:44:12.943Z,101695.43
2019-02-20T00:49:15.650Z,101695.41
2019-02-20T00:54:09.383Z,101694.14
2019-02-20T00:59:02.537Z,101701.08
2019-02-20T01:03:55.406Z,101705.23
2019-02-20T01:08:48.399Z,101696.21
2019-02-20T01:13:41.353Z,101701.08
2019-02-20T01:18:34.197Z,101705.10
2019-02-20T01:23:27.175Z,101695.58
2019-02-20T01:28:20.060Z,101687.80
2019-02-20T01:33:13.036Z,101691.56
2019-02-20T01:38:05.887Z,101684.92
2019-02-20T01:42:58.796Z,101682.74
2019-02-20T01:47:51.643Z,101682.98
2019-02-20T01:52:44.536Z,101679.04
2019-02-20T01:57:37.453Z,101678.47
2019-02-20T02:02:30.340Z,101676.69
2019-02-20T02:07:24.526Z,101678.74
2019-02-20T02:12:17.349Z,101679.58
2019-02-20T02:17:10.219Z,101673.42
2019-02-20T02:22:03.072Z,101672.30
2019-02-20T02:26:55.965Z,101670.40
2019-02-20T02:31:48.875Z,101671.13
2019-02-20T02:36:41.694Z,101670.98
2019-02-20T02:41:34.591Z,101669.39
2019-02-20T02:46:27.416Z,101664.83
2019-02-20T02:51:20.296Z,101668.52
2019-02-20T02:56:13.174Z,101672.64
2019-02-20T03:01:06.211Z,101667.94
2019-02-20T03:05:59.067Z,101663.81
2019-02-20T03:10:52.023Z,101663.22
2019-02-20T03:15:44.844Z,101669.95
2019-02-20T03:20:37.748Z,101675.56
2019-02-20T03:25:30.553Z,101678.64
2019-02-20T03:30:23.466Z,101683.08
2019-02-20T03:35:16.382Z,101673.70
2019-02-20T03:40:09.681Z,101683.10
2019-02-20T03:45:03.897Z,101691.37
2019-02-20T03:49:58.548Z,101685.84
2019-02-20T03:54:51.409Z,101687.86
2019-02-20T03:59:44.748Z,101683.95
2019-02-20T04:04:38.745Z,101679.10
2019-02-20T04:09:31.566Z,101685.00
2019-02-20T04:14:25.687Z,101690.38
2019-02-20T04:19:18.570Z,101691.80
2019-02-20T04:24:11.503Z,101690.31
2019-02-20T04:29:04.339Z,101694.18
2019-02-20T04:33:57.205Z,101690.06
2019-02-20T04:38:50.080Z,101689.93
2019-02-20T04:43:42.945Z,101691.23
2019-02-20T04:48:35.807Z,101692.38
2019-02-20T04:53:28.696Z,101691.39
2019-02-20T04:58:22.717Z,101687.32
2019-02-20T05:03:17.484Z,101685.75
2019-02-20T05:08:10.367Z,101686.91
2019-02-20T05:13:03.224Z,101692.59
2019-02-20T05:17:56.093Z,101694.18
2019-02-20T05:22:48.947Z,101696.27
2019-02-20T05:27:41.864Z,101695.27
2019-02-20T05:32:34.746Z,101689.55
2019-02-20T05:37:27.623Z,101693.31
2019-02-20T05:42:20.486Z,101685.77
2019-02-20T05:47:13.393Z,101688.19
2019-02-20T05:52:06.250Z,101687.39
2019-02-20T05:56:59.110Z,101685.58
2019-02-20T06:01:52.009Z,101695.69
2019-02-20T06:06:44.900Z,101695.70
2019-02-20T06:11:37.763Z,101704.52
2019-02-20T06:16:30.639Z,101703.53
2019-02-20T06:21:23.514Z,101711.34
2019-02-20T06:26:17.763Z,101709.26
2019-02-20T06:31:10.651Z,101718.65
2019-02-20T06:36:03.521Z,101717.52
2019-02-20T06:40:56.398Z,101720.84
2019-02-20T06:45:49.248Z,101726.92
2019-02-20T06:50:42.140Z,101735.23
2019-02-20T06:55:35.009Z,101741.94
2019-02-20T07:00:27.895Z,101749.77
2019-02-20T07:05:38.929Z,101755.84
2019-02-20T07:11:11.087Z,101759.99
2019-02-20T07:16:56.677Z,101762.19
2019-02-20T07:22:33.980Z,101761.59
2019-02-20T07:28:22.917Z,101772.70
2019-02-20T07:33:15.805Z,101769.58
2019-02-20T07:38:10.981Z,101761.53
2019-02-20T07:43:03.842Z,101766.21
2019-02-20T07:47:56.707Z,101777.77
2019-02-20T07:52:50.857Z,101780.09
2019-02-20T07:57:44.875Z,101782.99
2019-02-20T08:02:37.738Z,101784.94
2019-02-20T08:07:31.862Z,101790.33
2019-02-20T08:12:24.765Z,101799.08
2019-02-20T08:17:17.661Z,101806.04
2019-02-20T08:22:10.618Z,101813.64
2019-02-20T08:27:03.524Z,101815.18
2019-02-20T08:31:56.400Z,101811.86
2019-02-20T08:36:49.280Z,101804.14
2019-02-20T08:41:42.168Z,101803.63
2019-02-20T08:46:35.073Z,101800.03
2019-02-20T08:51:27.928Z,101809.87
2019-02-20T08:56:20.794Z,101816.06
2019-02-20T09:01:13.678Z,101826.26
2019-02-20T09:06:06.533Z,101824.11
2019-02-20T09:10:59.434Z,101823.23
2019-02-20T09:15:52.358Z,101819.22
2019-02-20T09:20:45.230Z,101816.05
2019-02-20T09:25:41.697Z,101813.28
2019-02-20T09:30:34.167Z,101823.63
2019-02-20T09:35:27.017Z,101821.82
2019-02-20T09:40:19.900Z,101824.54
2019-02-20T09:45:12.823Z,101819.02
2019-02-20T09:50:06.684Z,101823.73
2019-02-20T09:54:59.577Z,101825.69
2019-02-20T09:59:52.451Z,101830.41
2019-02-20T10:04:45.290Z,101835.66
2019-02-20T10:09:38.178Z,101830.16
2019-02-20T10:14:31.026Z,101830.53
2019-02-20T10:19:28.927Z,101835.55
2019-02-20T10:24:25.687Z,101829.67
2019-02-20T10:29:22.609Z,101831.31
2019-02-20T10:34:20.282Z,101837.76
2019-02-20T10:39:17.250Z,101841.30
2019-02-20T10:44:15.943Z,101837.63
2019-02-20T10:49:12.393Z,101835.92
2019-02-20T10:54:09.734Z,101838.84
2019-02-20T10:59:05.449Z,101834.80
2019-02-20T11:04:02.755Z,101830.22
2019-02-20T11:09:00.508Z,101826.32
2019-02-20T11:13:56.427Z,101832.95
2019-02-20T11:18:49.354Z,101827.69
2019-02-20T11:23:45.352Z,101824.19
2019-02-20T11:28:38.919Z,101829.40
2019-02-20T11:33:31.810Z,101828.86
2019-02-20T11:38:24.679Z,101818.58
2019-02-20T11:43:17.555Z,101828.55
2019-02-20T11:48:10.433Z,101831.04
2019-02-20T11:53:03.311Z,101830.59
2019-02-20T11:58:00.772Z,101830.98
2019-02-20T12:02:50.917Z,101826.09
2019-02-20T12:07:43.783Z,101815.62
2019-02-20T12:12:36.648Z,101807.02
2019-02-20T12:17:29.543Z,101798.38
2019-02-20T12:22:23.174Z,101804.36
2019-02-20T12:27:16.051Z,101800.19
2019-02-20T12:32:08.947Z,101813.31
2019-02-20T12:37:03.773Z,101803.06
2019-02-20T12:41:56.647Z,101806.13
2019-02-20T12:46:49.540Z,101806.05
2019-02-20T12:51:42.432Z,101813.67
2019-02-20T12:56:43.422Z,101808.46
2019-02-20T13:01:30.138Z,101810.74
2019-02-20T13:06:23.015Z,101809.72
2019-02-20T13:11:15.858Z,101803.23
2019-02-20T13:16:09.727Z,101800.52
2019-02-20T13:21:02.818Z,101790.83
2019-02-20T13:25:55.679Z,101794.38
2019-02-20T13:30:48.576Z,101792.80
2019-02-20T13:35:41.454Z,101790.49
2019-02-20T13:40:34.465Z,101787.27
2019-02-20T13:45:27.392Z,101804.41
2019-02-20T13:50:20.393Z,101803.28
2019-02-20T13:55:13.395Z,101797.67
2019-02-20T14:00:07.818Z,101806.27
2019-02-20T14:05:00.717Z,101814.84
2019-02-20T14:09:53.827Z,101812.41
2019-02-20T14:14:46.711Z,101806.61
2019-02-20T14:19:39.711Z,101806.44
2019-02-20T14:24:33.089Z,101797.17
2019-02-20T14:29:26.045Z,101791.00
2019-02-20T14:34:21.231Z,101781.55
2019-02-20T14:39:14.158Z,101788.73
2019-02-20T14:44:07.048Z,101787.07
2019-02-20T14:48:59.933Z,101790.04
2019-02-20T14:53:54.310Z,101790.77
2019-02-20T14:58:48.875Z,101786.30
2019-02-20T15:03:41.890Z,101788.05
2019-02-20T15:08:34.871Z,101788.72
2019-02-20T15:13:28.151Z,101793.20
2019-02-20T15:18:21.070Z,101795.70
2019-02-20T15:23:13.950Z,101803.83
2019-02-20T15:28:07.034Z,101802.66
2019-02-20T15:33:00.185Z,101803.36
2019-02-20T15:37:53.055Z,101799.01
2019-02-20T15:42:46.049Z,101802.94
2019-02-20T15:47:38.942Z,101805.56
2019-02-20T15:52:32.008Z,101812.87
2019-02-20T15:57:24.880Z,101811.95
2019-02-20T16:02:17.832Z,101805.47
2019-02-20T16:07:10.686Z,101811.33
2019-02-20T16:12:03.675Z,101817.69
2019-02-20T16:16:56.530Z,101821.06
2019-02-20T16:21:49.419Z,101821.09
2019-02-20T16:26:42.287Z,101827.13
2019-02-20T16:31:35.182Z,101828.16
2019-02-20T16:36:28.451Z,101827.95
2019-02-20T16:41:21.449Z,101827.28
2019-02-20T16:46:14.435Z,101823.41
2019-02-20T16:51:07.317Z,101832.30
2019-02-20T16:56:00.188Z,101830.07
2019-02-20T17:00:53.180Z,101838.11
2019-02-20T17:05:48.437Z,101844.80
2019-02-20T17:10:40.894Z,101848.48
2019-02-20T17:15:33.878Z,101852.28
2019-02-20T17:20:26.763Z,101853.46
2019-02-20T17:25:20.561Z,101862.00
2019-02-20T17:30:14.110Z,101868.33
2019-02-20T17:35:07.856Z,101877.97
2019-02-20T17:40:00.823Z,101884.59
2019-02-20T17:44:53.804Z,101878.05
2019-02-20T17:49:46.673Z,101879.55
2019-02-20T17:54:39.548Z,101891.34
2019-02-20T17:59:32.413Z,101892.46
2019-02-20T18:04:25.332Z,101896.50
2019-02-20T18:09:20.343Z,101896.22
2019-02-20T18:14:13.295Z,101902.67
2019-02-20T18:19:06.180Z,101900.20
2019-02-20T18:23:59.078Z,101898.91
2019-02-20T18:28:51.945Z,101902.74
2019-02-20T18:33:44.822Z,101912.22
2019-02-20T18:38:37.706Z,101910.55
2019-02-20T18:43:30.577Z,101905.53
2019-02-20T18:48:23.464Z,101918.22
2019-02-20T18:53:16.310Z,101917.35
2019-02-20T18:58:09.300Z,101921.33
2019-02-20T19:03:02.312Z,101929.20
2019-02-20T19:07:55.304Z,101926.88
2019-02-20T19:13:33.345Z,101933.98
2019-02-20T19:19:26.601Z,101937.67
2019-02-20T19:25:15.961Z,101936.51
2019-02-20T19:31:11.378Z,101940.70
2019-02-20T19:37:01.605Z,101939.97
2019-02-20T19:43:04.941Z,101945.86
2019-02-20T19:48:38.023Z,101942.36
2019-02-20T19:53:58.621Z,101949.66
2019-02-20T19:59:54.344Z,101951.19
2019-02-20T20:05:54.000Z,101947.27
2019-02-20T20:11:24.652Z,101953.39
2019-02-20T20:17:39.866Z,101952.73
2019-02-20T20:22:54.725Z,101952.97
2019-02-20T20:29:05.842Z,101954.98
2019-02-20T20:35:16.874Z,101956.64
2019-02-20T20:40:31.766Z,101957.05
2019-02-20T20:46:25.181Z,101969.29
2019-02-20T20:52:39.174Z,101971.84
2019-02-20T20:58:16.425Z,101974.56
2019-02-20T21:03:14.146Z,101981.75
2019-02-20T21:08:22.351Z,101979.25
2019-02-20T21:14:00.914Z,101975.81
2019-02-20T21:20:12.358Z,101983.84
2019-02-20T21:25:55.982Z,101977.09
2019-02-20T21:31:41.172Z,101977.32
2019-02-20T21:36:45.389Z,101986.33
2019-02-20T21:41:56.098Z,101986.92
2019-02-20T21:47:56.221Z,101993.55
2019-02-20T21:53:51.577Z,102001.36
2019-02-20T21:59:54.037Z,102005.83
2019-02-20T22:05:51.137Z,102021.03
2019-02-20T22:11:47.808Z,102026.70
2019-02-20T22:17:46.885Z,102020.70
2019-02-20T22:23:37.520Z,102029.95
2019-02-20T22:29:34.131Z,102028.28
2019-02-20T22:34:55.622Z,102031.86
2019-02-20T22:40:31.176Z,102027.31
2019-02-20T22:46:30.447Z,102028.51
2019-02-20T22:51:49.052Z,102028.74
2019-02-20T22:57:37.943Z,102025.58
2019-02-20T23:03:41.822Z,102030.13
2019-02-20T23:09:47.890Z,102032.98
2019-02-20T23:14:57.181Z,102041.23
2019-02-20T23:19:50.034Z,102046.20
2019-02-20T23:24:44.032Z,102049.73
2019-02-20T23:29:36.902Z,102049.77
2019-02-20T23:34:31.267Z,102047.44
2019-02-20T23:39:24.359Z,102046.08
2019-02-20T23:44:17.261Z,102048.34
2019-02-20T23:49:10.129Z,102056.66
2019-02-20T23:54:03.022Z,102052.00
2019-02-20T23:58:55.876Z,102052.97
